sensor_id;sensor_type;location;lat;lon;timestamp;temperature;humidity
64549;DHT22;49838;51.798;10.954;2024-03-08T00:02:15;6.80;39.10
64549;DHT22;49838;51.798;10.954;2024-03-08T00:04:43;6.80;39.10
64549;DHT22;49838;51.798;10.954;2024-03-08T00:07:10;6.80;39.20
64549;DHT22;49838;51.798;10.954;2024-03-08T00:09:39;6.70;39.00
64549;DHT22;49838;51.798;10.954;2024-03-08T00:12:06;6.70;39.10
64549;DHT22;49838;51.798;10.954;2024-03-08T00:14:35;6.70;39.00
64549;DHT22;49838;51.798;10.954;2024-03-08T00:17:03;6.70;39.00
64549;DHT22;49838;51.798;10.954;2024-03-08T00:19:32;6.70;39.00
64549;DHT22;49838;51.798;10.954;2024-03-08T00:21:59;6.60;38.90
64549;DHT22;49838;51.798;10.954;2024-03-08T00:24:26;6.60;39.00
64549;DHT22;49838;51.798;10.954;2024-03-08T00:26:54;6.60;39.00
64549;DHT22;49838;51.798;10.954;2024-03-08T00:29:22;6.60;39.00
64549;DHT22;49838;51.798;10.954;2024-03-08T00:31:49;6.50;39.60
64549;DHT22;49838;51.798;10.954;2024-03-08T00:34:16;6.50;38.90
64549;DHT22;49838;51.798;10.954;2024-03-08T00:36:45;6.50;38.90
64549;DHT22;49838;51.798;10.954;2024-03-08T00:39:13;6.40;38.90
64549;DHT22;49838;51.798;10.954;2024-03-08T00:41:43;6.40;38.90
64549;DHT22;49838;51.798;10.954;2024-03-08T00:44:10;6.40;38.90
64549;DHT22;49838;51.798;10.954;2024-03-08T00:46:37;6.40;38.90
64549;DHT22;49838;51.798;10.954;2024-03-08T00:49:05;6.30;38.90
64549;DHT22;49838;51.798;10.954;2024-03-08T00:51:32;6.30;38.90
64549;DHT22;49838;51.798;10.954;2024-03-08T00:54:01;6.30;38.90
64549;DHT22;49838;51.798;10.954;2024-03-08T00:56:28;6.20;38.80
64549;DHT22;49838;51.798;10.954;2024-03-08T00:58:55;6.20;38.80
64549;DHT22;49838;51.798;10.954;2024-03-08T01:01:22;6.20;38.90
64549;DHT22;49838;51.798;10.954;2024-03-08T01:03:50;6.20;38.80
64549;DHT22;49838;51.798;10.954;2024-03-08T01:06:18;6.10;38.80
64549;DHT22;49838;51.798;10.954;2024-03-08T01:08:45;6.10;38.80
64549;DHT22;49838;51.798;10.954;2024-03-08T01:11:14;6.10;38.80
64549;DHT22;49838;51.798;10.954;2024-03-08T01:13:41;6.10;38.90
64549;DHT22;49838;51.798;10.954;2024-03-08T01:16:08;6.00;38.80
64549;DHT22;49838;51.798;10.954;2024-03-08T01:18:36;6.00;38.80
64549;DHT22;49838;51.798;10.954;2024-03-08T01:21:03;6.00;38.80
64549;DHT22;49838;51.798;10.954;2024-03-08T01:23:31;5.90;38.70
64549;DHT22;49838;51.798;10.954;2024-03-08T01:25:58;5.90;38.80
64549;DHT22;49838;51.798;10.954;2024-03-08T01:28:27;5.90;38.80
64549;DHT22;49838;51.798;10.954;2024-03-08T01:30:54;5.90;38.80
64549;DHT22;49838;51.798;10.954;2024-03-08T01:33:22;5.90;38.80
64549;DHT22;49838;51.798;10.954;2024-03-08T01:35:49;5.80;38.80
64549;DHT22;49838;51.798;10.954;2024-03-08T01:38:17;5.90;38.90
64549;DHT22;49838;51.798;10.954;2024-03-08T01:40:44;5.80;38.80
64549;DHT22;49838;51.798;10.954;2024-03-08T01:43:16;5.80;38.80
64549;DHT22;49838;51.798;10.954;2024-03-08T01:45:46;5.80;38.80
64549;DHT22;49838;51.798;10.954;2024-03-08T01:48:14;5.80;38.80
64549;DHT22;49838;51.798;10.954;2024-03-08T01:50:56;5.80;38.90
64549;DHT22;49838;51.798;10.954;2024-03-08T01:53:25;5.80;39.00
64549;DHT22;49838;51.798;10.954;2024-03-08T01:56:14;5.80;39.00
64549;DHT22;49838;51.798;10.954;2024-03-08T01:58:42;5.80;39.00
64549;DHT22;49838;51.798;10.954;2024-03-08T02:01:11;5.80;39.00
64549;DHT22;49838;51.798;10.954;2024-03-08T02:03:40;5.70;39.00
64549;DHT22;49838;51.798;10.954;2024-03-08T02:06:09;5.70;39.00
64549;DHT22;49838;51.798;10.954;2024-03-08T02:08:41;5.70;39.00
64549;DHT22;49838;51.798;10.954;2024-03-08T02:11:09;5.70;39.00
64549;DHT22;49838;51.798;10.954;2024-03-08T02:13:37;5.70;39.00
64549;DHT22;49838;51.798;10.954;2024-03-08T02:16:04;5.70;39.00
64549;DHT22;49838;51.798;10.954;2024-03-08T02:18:35;5.60;38.90
64549;DHT22;49838;51.798;10.954;2024-03-08T02:21:04;5.60;38.90
64549;DHT22;49838;51.798;10.954;2024-03-08T02:23:32;5.60;38.90
64549;DHT22;49838;51.798;10.954;2024-03-08T02:26:00;5.60;38.90
64549;DHT22;49838;51.798;10.954;2024-03-08T02:28:27;5.60;38.90
64549;DHT22;49838;51.798;10.954;2024-03-08T02:30:55;5.60;38.90
64549;DHT22;49838;51.798;10.954;2024-03-08T02:33:23;5.50;38.90
64549;DHT22;49838;51.798;10.954;2024-03-08T02:35:50;5.50;38.90
64549;DHT22;49838;51.798;10.954;2024-03-08T02:38:19;5.50;38.90
64549;DHT22;49838;51.798;10.954;2024-03-08T02:40:48;5.40;38.90
64549;DHT22;49838;51.798;10.954;2024-03-08T02:43:17;5.40;38.90
64549;DHT22;49838;51.798;10.954;2024-03-08T02:45:45;5.40;38.90
64549;DHT22;49838;51.798;10.954;2024-03-08T02:48:13;5.40;39.00
64549;DHT22;49838;51.798;10.954;2024-03-08T02:50:42;5.40;39.00
64549;DHT22;49838;51.798;10.954;2024-03-08T02:53:10;5.30;38.90
64549;DHT22;49838;51.798;10.954;2024-03-08T02:55:41;5.30;39.00
64549;DHT22;49838;51.798;10.954;2024-03-08T02:58:09;5.30;39.00
64549;DHT22;49838;51.798;10.954;2024-03-08T03:00:56;5.30;39.00
64549;DHT22;49838;51.798;10.954;2024-03-08T03:03:44;5.30;39.00
64549;DHT22;49838;51.798;10.954;2024-03-08T03:06:13;5.30;39.00
64549;DHT22;49838;51.798;10.954;2024-03-08T03:08:41;5.30;39.00
64549;DHT22;49838;51.798;10.954;2024-03-08T03:11:12;5.30;39.00
64549;DHT22;49838;51.798;10.954;2024-03-08T03:13:40;5.30;39.00
64549;DHT22;49838;51.798;10.954;2024-03-08T03:16:08;5.30;39.00
64549;DHT22;49838;51.798;10.954;2024-03-08T03:18:54;5.30;39.00
64549;DHT22;49838;51.798;10.954;2024-03-08T03:21:23;5.30;39.00
64549;DHT22;49838;51.798;10.954;2024-03-08T03:23:50;5.30;38.90
64549;DHT22;49838;51.798;10.954;2024-03-08T03:26:20;5.30;38.90
64549;DHT22;49838;51.798;10.954;2024-03-08T03:28:47;5.30;38.90
64549;DHT22;49838;51.798;10.954;2024-03-08T03:31:15;5.30;38.90
64549;DHT22;49838;51.798;10.954;2024-03-08T03:33:43;5.30;38.90
64549;DHT22;49838;51.798;10.954;2024-03-08T03:36:10;5.20;38.80
64549;DHT22;49838;51.798;10.954;2024-03-08T03:38:40;5.20;38.80
64549;DHT22;49838;51.798;10.954;2024-03-08T03:41:07;5.20;38.70
64549;DHT22;49838;51.798;10.954;2024-03-08T03:43:37;5.20;38.70
64549;DHT22;49838;51.798;10.954;2024-03-08T03:46:05;5.20;38.80
64549;DHT22;49838;51.798;10.954;2024-03-08T03:48:33;5.10;38.70
64549;DHT22;49838;51.798;10.954;2024-03-08T03:51:01;5.10;38.70
64549;DHT22;49838;51.798;10.954;2024-03-08T03:53:28;5.10;38.80
64549;DHT22;49838;51.798;10.954;2024-03-08T03:55:55;5.00;38.80
64549;DHT22;49838;51.798;10.954;2024-03-08T03:58:23;5.00;38.90
64549;DHT22;49838;51.798;10.954;2024-03-08T04:00:53;4.90;38.90
64549;DHT22;49838;51.798;10.954;2024-03-08T04:03:21;4.90;38.90
64549;DHT22;49838;51.798;10.954;2024-03-08T04:05:48;4.90;38.90
64549;DHT22;49838;51.798;10.954;2024-03-08T04:08:15;4.90;39.00
64549;DHT22;49838;51.798;10.954;2024-03-08T04:10:42;4.80;38.90
64549;DHT22;49838;51.798;10.954;2024-03-08T04:13:10;4.90;38.90
64549;DHT22;49838;51.798;10.954;2024-03-08T04:15:37;4.90;38.90
64549;DHT22;49838;51.798;10.954;2024-03-08T04:18:06;4.90;38.90
64549;DHT22;49838;51.798;10.954;2024-03-08T04:20:33;4.90;38.90
64549;DHT22;49838;51.798;10.954;2024-03-08T04:23:00;4.90;38.90
64549;DHT22;49838;51.798;10.954;2024-03-08T04:25:27;4.80;38.80
64549;DHT22;49838;51.798;10.954;2024-03-08T04:27:55;4.90;38.80
64549;DHT22;49838;51.798;10.954;2024-03-08T04:30:22;4.80;38.70
64549;DHT22;49838;51.798;10.954;2024-03-08T04:32:50;4.80;38.70
64549;DHT22;49838;51.798;10.954;2024-03-08T04:35:20;4.80;38.80
64549;DHT22;49838;51.798;10.954;2024-03-08T04:37:47;4.80;38.80
64549;DHT22;49838;51.798;10.954;2024-03-08T04:40:14;4.70;38.80
64549;DHT22;49838;51.798;10.954;2024-03-08T04:42:42;4.70;38.80
64549;DHT22;49838;51.798;10.954;2024-03-08T04:45:09;4.70;38.90
64549;DHT22;49838;51.798;10.954;2024-03-08T04:47:38;4.60;38.80
64549;DHT22;49838;51.798;10.954;2024-03-08T04:50:05;4.60;38.80
64549;DHT22;49838;51.798;10.954;2024-03-08T04:52:36;4.60;38.90
64549;DHT22;49838;51.798;10.954;2024-03-08T04:55:03;4.60;38.90
64549;DHT22;49838;51.798;10.954;2024-03-08T04:57:31;4.60;39.00
64549;DHT22;49838;51.798;10.954;2024-03-08T04:59:59;4.50;38.90
64549;DHT22;49838;51.798;10.954;2024-03-08T05:02:26;4.60;38.90
64549;DHT22;49838;51.798;10.954;2024-03-08T05:04:53;4.60;38.90
64549;DHT22;49838;51.798;10.954;2024-03-08T05:07:21;4.60;38.90
64549;DHT22;49838;51.798;10.954;2024-03-08T05:09:49;4.50;38.80
64549;DHT22;49838;51.798;10.954;2024-03-08T05:12:18;4.50;38.90
64549;DHT22;49838;51.798;10.954;2024-03-08T05:14:45;4.50;38.90
64549;DHT22;49838;51.798;10.954;2024-03-08T05:17:15;4.50;38.90
64549;DHT22;49838;51.798;10.954;2024-03-08T05:19:43;4.50;38.90
64549;DHT22;49838;51.798;10.954;2024-03-08T05:22:10;4.50;39.00
64549;DHT22;49838;51.798;10.954;2024-03-08T05:24:37;4.50;39.00
64549;DHT22;49838;51.798;10.954;2024-03-08T05:27:06;4.50;39.00
64549;DHT22;49838;51.798;10.954;2024-03-08T05:29:33;4.50;39.00
64549;DHT22;49838;51.798;10.954;2024-03-08T05:32:00;4.50;39.00
64549;DHT22;49838;51.798;10.954;2024-03-08T05:34:29;4.50;39.00
64549;DHT22;49838;51.798;10.954;2024-03-08T05:36:57;4.50;39.00
64549;DHT22;49838;51.798;10.954;2024-03-08T05:39:24;4.50;38.90
64549;DHT22;49838;51.798;10.954;2024-03-08T05:41:51;4.50;38.90
64549;DHT22;49838;51.798;10.954;2024-03-08T05:44:22;4.60;39.00
64549;DHT22;49838;51.798;10.954;2024-03-08T05:46:49;4.60;38.90
64549;DHT22;49838;51.798;10.954;2024-03-08T05:49:17;4.60;38.90
64549;DHT22;49838;51.798;10.954;2024-03-08T05:51:44;4.60;38.90
64549;DHT22;49838;51.798;10.954;2024-03-08T05:54:13;4.70;39.00
64549;DHT22;49838;51.798;10.954;2024-03-08T05:56:41;4.70;39.00
64549;DHT22;49838;51.798;10.954;2024-03-08T05:59:09;4.70;39.00
64549;DHT22;49838;51.798;10.954;2024-03-08T06:01:38;4.80;39.20
64549;DHT22;49838;51.798;10.954;2024-03-08T06:04:06;4.80;39.10
64549;DHT22;49838;51.798;10.954;2024-03-08T06:06:34;4.90;39.10
64549;DHT22;49838;51.798;10.954;2024-03-08T06:09:03;4.90;39.10
64549;DHT22;49838;51.798;10.954;2024-03-08T06:11:37;5.20;39.30
64549;DHT22;49838;51.798;10.954;2024-03-08T06:14:04;5.40;39.40
64549;DHT22;49838;51.798;10.954;2024-03-08T06:16:31;5.50;39.40
64549;DHT22;49838;51.798;10.954;2024-03-08T06:19:03;5.70;39.60
64549;DHT22;49838;51.798;10.954;2024-03-08T06:21:30;5.90;39.60
64549;DHT22;49838;51.798;10.954;2024-03-08T06:23:58;6.10;39.80
64549;DHT22;49838;51.798;10.954;2024-03-08T06:26:25;6.40;39.70
64549;DHT22;49838;51.798;10.954;2024-03-08T06:28:54;6.70;39.80
64549;DHT22;49838;51.798;10.954;2024-03-08T06:31:22;6.90;39.80
64549;DHT22;49838;51.798;10.954;2024-03-08T06:33:50;7.20;39.90
64549;DHT22;49838;51.798;10.954;2024-03-08T06:36:18;7.40;39.90
64549;DHT22;49838;51.798;10.954;2024-03-08T06:38:47;7.60;40.00
64549;DHT22;49838;51.798;10.954;2024-03-08T06:41:14;7.80;40.10
64549;DHT22;49838;51.798;10.954;2024-03-08T06:43:42;8.10;40.40
64549;DHT22;49838;51.798;10.954;2024-03-08T06:46:09;8.30;40.50
64549;DHT22;49838;51.798;10.954;2024-03-08T06:48:38;8.50;40.50
64549;DHT22;49838;51.798;10.954;2024-03-08T06:51:06;8.70;40.60
64549;DHT22;49838;51.798;10.954;2024-03-08T06:53:34;8.90;40.70
64549;DHT22;49838;51.798;10.954;2024-03-08T06:56:02;9.10;40.70
64549;DHT22;49838;51.798;10.954;2024-03-08T06:58:30;9.30;40.90
64549;DHT22;49838;51.798;10.954;2024-03-08T07:00:58;9.40;41.00
64549;DHT22;49838;51.798;10.954;2024-03-08T07:03:26;9.70;41.30
64549;DHT22;49838;51.798;10.954;2024-03-08T07:05:55;9.90;41.40
64549;DHT22;49838;51.798;10.954;2024-03-08T07:08:24;10.10;40.80
64549;DHT22;49838;51.798;10.954;2024-03-08T07:10:54;10.30;40.90
64549;DHT22;49838;51.798;10.954;2024-03-08T07:13:21;10.50;40.90
64549;DHT22;49838;51.798;10.954;2024-03-08T07:15:48;10.60;40.70
64549;DHT22;49838;51.798;10.954;2024-03-08T07:18:17;10.70;40.70
64549;DHT22;49838;51.798;10.954;2024-03-08T07:20:44;10.70;40.50
64549;DHT22;49838;51.798;10.954;2024-03-08T07:23:12;10.90;40.70
64549;DHT22;49838;51.798;10.954;2024-03-08T07:26:00;11.00;41.20
64549;DHT22;49838;51.798;10.954;2024-03-08T07:28:27;11.20;41.40
64549;DHT22;49838;51.798;10.954;2024-03-08T07:30:56;11.40;41.60
64549;DHT22;49838;51.798;10.954;2024-03-08T07:33:38;11.60;41.70
64549;DHT22;49838;51.798;10.954;2024-03-08T07:36:05;11.80;41.90
64549;DHT22;49838;51.798;10.954;2024-03-08T07:38:33;12.10;41.90
64549;DHT22;49838;51.798;10.954;2024-03-08T07:41:01;12.20;41.50
64549;DHT22;49838;51.798;10.954;2024-03-08T07:43:28;12.30;41.40
64549;DHT22;49838;51.798;10.954;2024-03-08T07:45:56;12.50;41.30
64549;DHT22;49838;51.798;10.954;2024-03-08T07:48:23;12.60;41.50
64549;DHT22;49838;51.798;10.954;2024-03-08T07:50:51;12.70;41.70
64549;DHT22;49838;51.798;10.954;2024-03-08T07:53:18;12.90;41.70
64549;DHT22;49838;51.798;10.954;2024-03-08T07:55:47;13.20;42.10
64549;DHT22;49838;51.798;10.954;2024-03-08T07:58:15;13.40;42.10
64549;DHT22;49838;51.798;10.954;2024-03-08T08:00:43;13.60;42.10
64549;DHT22;49838;51.798;10.954;2024-03-08T08:03:10;13.80;42.20
64549;DHT22;49838;51.798;10.954;2024-03-08T08:05:38;14.10;42.40
64549;DHT22;49838;51.798;10.954;2024-03-08T08:08:07;14.40;42.40
64549;DHT22;49838;51.798;10.954;2024-03-08T08:10:36;14.60;42.70
64549;DHT22;49838;51.798;10.954;2024-03-08T08:13:03;15.00;43.00
64549;DHT22;49838;51.798;10.954;2024-03-08T08:15:32;15.30;42.90
64549;DHT22;49838;51.798;10.954;2024-03-08T08:18:00;15.70;43.50
64549;DHT22;49838;51.798;10.954;2024-03-08T08:20:28;16.10;43.80
64549;DHT22;49838;51.798;10.954;2024-03-08T08:22:56;16.50;43.80
64549;DHT22;49838;51.798;10.954;2024-03-08T08:25:24;16.80;43.80
64549;DHT22;49838;51.798;10.954;2024-03-08T08:27:52;17.30;43.50
64549;DHT22;49838;51.798;10.954;2024-03-08T08:30:19;17.60;43.80
64549;DHT22;49838;51.798;10.954;2024-03-08T08:32:48;18.00;43.80
64549;DHT22;49838;51.798;10.954;2024-03-08T08:35:15;18.30;43.20
64549;DHT22;49838;51.798;10.954;2024-03-08T08:37:45;18.60;43.30
64549;DHT22;49838;51.798;10.954;2024-03-08T08:40:12;19.00;43.80
64549;DHT22;49838;51.798;10.954;2024-03-08T08:42:43;19.30;43.60
64549;DHT22;49838;51.798;10.954;2024-03-08T08:45:12;19.60;43.80
64549;DHT22;49838;51.798;10.954;2024-03-08T08:47:39;19.80;43.60
64549;DHT22;49838;51.798;10.954;2024-03-08T08:50:10;20.10;43.80
64549;DHT22;49838;51.798;10.954;2024-03-08T08:52:38;20.30;43.50
64549;DHT22;49838;51.798;10.954;2024-03-08T08:55:06;20.60;43.50
64549;DHT22;49838;51.798;10.954;2024-03-08T08:57:33;20.70;42.70
64549;DHT22;49838;51.798;10.954;2024-03-08T09:00:01;20.90;42.70
64549;DHT22;49838;51.798;10.954;2024-03-08T09:02:33;21.10;43.00
64549;DHT22;49838;51.798;10.954;2024-03-08T09:05:00;21.30;43.00
64549;DHT22;49838;51.798;10.954;2024-03-08T09:07:29;21.60;42.90
64549;DHT22;49838;51.798;10.954;2024-03-08T09:09:56;21.80;42.40
64549;DHT22;49838;51.798;10.954;2024-03-08T09:12:24;21.90;42.30
64549;DHT22;49838;51.798;10.954;2024-03-08T09:14:51;22.20;42.40
64549;DHT22;49838;51.798;10.954;2024-03-08T09:17:18;22.30;42.20
64549;DHT22;49838;51.798;10.954;2024-03-08T09:19:46;22.50;40.30
64549;DHT22;49838;51.798;10.954;2024-03-08T09:22:14;22.50;40.60
64549;DHT22;49838;51.798;10.954;2024-03-08T09:24:42;22.60;41.30
64549;DHT22;49838;51.798;10.954;2024-03-08T09:27:10;22.70;41.70
64549;DHT22;49838;51.798;10.954;2024-03-08T09:29:37;22.90;41.70
64549;DHT22;49838;51.798;10.954;2024-03-08T09:32:04;23.20;41.60
64549;DHT22;49838;51.798;10.954;2024-03-08T09:34:33;23.30;40.90
64549;DHT22;49838;51.798;10.954;2024-03-08T09:37:00;23.40;40.70
64549;DHT22;49838;51.798;10.954;2024-03-08T09:39:30;23.50;41.40
64549;DHT22;49838;51.798;10.954;2024-03-08T09:42:00;23.60;39.80
64549;DHT22;49838;51.798;10.954;2024-03-08T09:44:27;23.60;39.00
64549;DHT22;49838;51.798;10.954;2024-03-08T09:46:55;23.70;40.00
64549;DHT22;49838;51.798;10.954;2024-03-08T09:49:24;23.70;40.80
64549;DHT22;49838;51.798;10.954;2024-03-08T09:51:51;23.90;38.70
64549;DHT22;49838;51.798;10.954;2024-03-08T09:54:19;23.80;37.60
64549;DHT22;49838;51.798;10.954;2024-03-08T09:56:48;23.80;39.10
64549;DHT22;49838;51.798;10.954;2024-03-08T09:59:19;23.90;39.10
64549;DHT22;49838;51.798;10.954;2024-03-08T10:02:12;24.10;39.00
64549;DHT22;49838;51.798;10.954;2024-03-08T10:04:42;24.10;38.80
64549;DHT22;49838;51.798;10.954;2024-03-08T10:07:12;24.20;39.20
64549;DHT22;49838;51.798;10.954;2024-03-08T10:09:39;24.30;38.40
64549;DHT22;49838;51.798;10.954;2024-03-08T10:12:08;24.40;38.90
64549;DHT22;49838;51.798;10.954;2024-03-08T10:14:40;24.40;39.60
64549;DHT22;49838;51.798;10.954;2024-03-08T10:17:08;24.60;39.00
64549;DHT22;49838;51.798;10.954;2024-03-08T10:19:35;24.70;37.60
64549;DHT22;49838;51.798;10.954;2024-03-08T10:22:02;24.70;36.90
64549;DHT22;49838;51.798;10.954;2024-03-08T10:24:30;24.60;38.20
64549;DHT22;49838;51.798;10.954;2024-03-08T10:26:59;24.70;37.40
64549;DHT22;49838;51.798;10.954;2024-03-08T10:29:30;24.60;36.40
64549;DHT22;49838;51.798;10.954;2024-03-08T10:31:59;24.60;36.80
64549;DHT22;49838;51.798;10.954;2024-03-08T10:34:30;24.50;35.60
64549;DHT22;49838;51.798;10.954;2024-03-08T10:36:58;24.40;35.70
64549;DHT22;49838;51.798;10.954;2024-03-08T10:39:31;24.40;36.40
64549;DHT22;49838;51.798;10.954;2024-03-08T10:42:02;24.40;37.40
64549;DHT22;49838;51.798;10.954;2024-03-08T10:47:25;24.60;38.70
64549;DHT22;49838;51.798;10.954;2024-03-08T10:49:59;24.80;39.00
64549;DHT22;49838;51.798;10.954;2024-03-08T10:52:36;24.90;38.50
64549;DHT22;49838;51.798;10.954;2024-03-08T10:55:04;24.90;36.80
64549;DHT22;49838;51.798;10.954;2024-03-08T10:57:38;24.90;35.80
64549;DHT22;49838;51.798;10.954;2024-03-08T11:00:06;24.80;34.10
64549;DHT22;49838;51.798;10.954;2024-03-08T11:02:37;24.70;34.70
64549;DHT22;49838;51.798;10.954;2024-03-08T11:05:05;24.60;35.40
64549;DHT22;49838;51.798;10.954;2024-03-08T11:07:41;24.50;35.30
64549;DHT22;49838;51.798;10.954;2024-03-08T11:10:18;24.40;34.10
64549;DHT22;49838;51.798;10.954;2024-03-08T11:12:46;24.40;34.40
64549;DHT22;49838;51.798;10.954;2024-03-08T11:15:14;24.30;31.90
64549;DHT22;49838;51.798;10.954;2024-03-08T11:17:46;24.10;32.70
64549;DHT22;49838;51.798;10.954;2024-03-08T11:20:14;24.00;33.50
64549;DHT22;49838;51.798;10.954;2024-03-08T11:22:47;24.00;31.90
64549;DHT22;49838;51.798;10.954;2024-03-08T11:28:09;24.00;33.00
64549;DHT22;49838;51.798;10.954;2024-03-08T11:30:43;23.90;31.90
64549;DHT22;49838;51.798;10.954;2024-03-08T11:33:14;23.80;32.50
64549;DHT22;49838;51.798;10.954;2024-03-08T11:35:42;23.70;31.30
64549;DHT22;49838;51.798;10.954;2024-03-08T11:38:12;23.50;30.30
64549;DHT22;49838;51.798;10.954;2024-03-08T11:40:40;23.20;31.10
64549;DHT22;49838;51.798;10.954;2024-03-08T11:43:08;22.90;31.50
64549;DHT22;49838;51.798;10.954;2024-03-08T11:45:35;22.60;31.00
64549;DHT22;49838;51.798;10.954;2024-03-08T11:48:03;22.10;30.10
64549;DHT22;49838;51.798;10.954;2024-03-08T11:50:32;21.60;30.50
64549;DHT22;49838;51.798;10.954;2024-03-08T11:53:00;21.00;31.00
64549;DHT22;49838;51.798;10.954;2024-03-08T11:55:28;20.50;31.20
64549;DHT22;49838;51.798;10.954;2024-03-08T11:57:59;20.00;30.90
64549;DHT22;49838;51.798;10.954;2024-03-08T12:00:28;19.50;30.20
64549;DHT22;49838;51.798;10.954;2024-03-08T12:03:01;19.00;30.20
64549;DHT22;49838;51.798;10.954;2024-03-08T12:05:29;18.60;30.70
64549;DHT22;49838;51.798;10.954;2024-03-08T12:08:00;18.00;30.20
64549;DHT22;49838;51.798;10.954;2024-03-08T12:10:28;17.60;31.00
64549;DHT22;49838;51.798;10.954;2024-03-08T12:12:57;17.30;31.20
64549;DHT22;49838;51.798;10.954;2024-03-08T12:15:26;17.10;31.60
64549;DHT22;49838;51.798;10.954;2024-03-08T12:17:55;16.90;31.80
64549;DHT22;49838;51.798;10.954;2024-03-08T12:20:24;16.70;32.20
64549;DHT22;49838;51.798;10.954;2024-03-08T12:22:53;16.50;32.20
64549;DHT22;49838;51.798;10.954;2024-03-08T12:25:25;16.40;32.60
64549;DHT22;49838;51.798;10.954;2024-03-08T12:27:53;16.20;32.70
64549;DHT22;49838;51.798;10.954;2024-03-08T12:30:23;16.00;32.60
64549;DHT22;49838;51.798;10.954;2024-03-08T12:32:54;15.90;33.00
64549;DHT22;49838;51.798;10.954;2024-03-08T12:35:23;15.70;32.90
64549;DHT22;49838;51.798;10.954;2024-03-08T12:37:52;15.70;33.30
64549;DHT22;49838;51.798;10.954;2024-03-08T12:40:26;15.70;33.30
64549;DHT22;49838;51.798;10.954;2024-03-08T12:42:55;15.50;33.30
64549;DHT22;49838;51.798;10.954;2024-03-08T12:45:23;15.40;33.50
64549;DHT22;49838;51.798;10.954;2024-03-08T12:47:50;15.30;33.60
64549;DHT22;49838;51.798;10.954;2024-03-08T12:50:19;15.30;33.80
64549;DHT22;49838;51.798;10.954;2024-03-08T12:52:46;15.20;33.70
64549;DHT22;49838;51.798;10.954;2024-03-08T12:55:14;15.20;33.80
64549;DHT22;49838;51.798;10.954;2024-03-08T12:57:43;15.10;33.70
64549;DHT22;49838;51.798;10.954;2024-03-08T13:00:11;15.10;34.00
64549;DHT22;49838;51.798;10.954;2024-03-08T13:02:44;15.10;33.90
64549;DHT22;49838;51.798;10.954;2024-03-08T13:05:12;15.00;33.80
64549;DHT22;49838;51.798;10.954;2024-03-08T13:07:40;14.90;33.90
64549;DHT22;49838;51.798;10.954;2024-03-08T13:10:12;14.90;34.00
64549;DHT22;49838;51.798;10.954;2024-03-08T13:12:41;14.80;34.00
64549;DHT22;49838;51.798;10.954;2024-03-08T13:15:09;14.80;34.20
64549;DHT22;49838;51.798;10.954;2024-03-08T13:17:41;14.70;34.30
64549;DHT22;49838;51.798;10.954;2024-03-08T13:20:10;14.70;34.40
64549;DHT22;49838;51.798;10.954;2024-03-08T13:22:42;14.70;34.40
64549;DHT22;49838;51.798;10.954;2024-03-08T13:25:09;14.70;34.40
64549;DHT22;49838;51.798;10.954;2024-03-08T13:27:39;14.60;34.50
64549;DHT22;49838;51.798;10.954;2024-03-08T13:30:07;14.60;34.70
64549;DHT22;49838;51.798;10.954;2024-03-08T13:32:39;14.50;34.60
64549;DHT22;49838;51.798;10.954;2024-03-08T13:35:09;14.40;34.80
64549;DHT22;49838;51.798;10.954;2024-03-08T13:37:38;14.40;34.90
64549;DHT22;49838;51.798;10.954;2024-03-08T13:40:06;14.50;35.00
64549;DHT22;49838;51.798;10.954;2024-03-08T13:42:40;14.40;34.90
64549;DHT22;49838;51.798;10.954;2024-03-08T13:45:10;14.40;34.90
64549;DHT22;49838;51.798;10.954;2024-03-08T13:47:38;14.40;35.20
64549;DHT22;49838;51.798;10.954;2024-03-08T13:50:07;14.40;35.30
64549;DHT22;49838;51.798;10.954;2024-03-08T13:52:37;14.40;35.30
64549;DHT22;49838;51.798;10.954;2024-03-08T13:55:05;14.20;35.10
64549;DHT22;49838;51.798;10.954;2024-03-08T13:57:32;14.30;35.20
64549;DHT22;49838;51.798;10.954;2024-03-08T14:00:00;14.20;35.30
64549;DHT22;49838;51.798;10.954;2024-03-08T14:02:29;14.20;35.50
64549;DHT22;49838;51.798;10.954;2024-03-08T14:04:57;14.00;35.60
64549;DHT22;49838;51.798;10.954;2024-03-08T14:07:27;14.00;36.50
64549;DHT22;49838;51.798;10.954;2024-03-08T14:09:55;14.00;35.80
64549;DHT22;49838;51.798;10.954;2024-03-08T14:12:22;14.00;35.90
64549;DHT22;49838;51.798;10.954;2024-03-08T14:14:52;14.00;36.10
64549;DHT22;49838;51.798;10.954;2024-03-08T14:17:19;14.00;36.10
64549;DHT22;49838;51.798;10.954;2024-03-08T14:19:48;14.10;35.90
64549;DHT22;49838;51.798;10.954;2024-03-08T14:22:16;14.10;35.80
64549;DHT22;49838;51.798;10.954;2024-03-08T14:24:43;14.00;35.70
64549;DHT22;49838;51.798;10.954;2024-03-08T14:27:10;13.90;35.70
64549;DHT22;49838;51.798;10.954;2024-03-08T14:29:38;14.00;35.80
64549;DHT22;49838;51.798;10.954;2024-03-08T14:32:05;14.00;35.80
64549;DHT22;49838;51.798;10.954;2024-03-08T14:34:34;13.90;35.70
64549;DHT22;49838;51.798;10.954;2024-03-08T14:37:02;13.90;35.90
64549;DHT22;49838;51.798;10.954;2024-03-08T14:39:34;14.00;35.80
64549;DHT22;49838;51.798;10.954;2024-03-08T14:42:01;14.00;35.80
64549;DHT22;49838;51.798;10.954;2024-03-08T14:44:29;14.00;35.70
64549;DHT22;49838;51.798;10.954;2024-03-08T14:46:56;13.90;35.70
64549;DHT22;49838;51.798;10.954;2024-03-08T14:49:24;13.90;35.70
64549;DHT22;49838;51.798;10.954;2024-03-08T14:51:52;14.00;35.60
64549;DHT22;49838;51.798;10.954;2024-03-08T14:54:21;14.10;35.60
64549;DHT22;49838;51.798;10.954;2024-03-08T14:56:49;14.00;35.50
64549;DHT22;49838;51.798;10.954;2024-03-08T14:59:17;13.90;35.40
64549;DHT22;49838;51.798;10.954;2024-03-08T15:01:45;13.90;35.50
64549;DHT22;49838;51.798;10.954;2024-03-08T15:04:13;13.90;35.60
64549;DHT22;49838;51.798;10.954;2024-03-08T15:06:41;13.80;35.60
64549;DHT22;49838;51.798;10.954;2024-03-08T15:09:14;13.80;35.60
64549;DHT22;49838;51.798;10.954;2024-03-08T15:11:46;13.80;35.50
64549;DHT22;49838;51.798;10.954;2024-03-08T15:14:15;13.80;35.40
64549;DHT22;49838;51.798;10.954;2024-03-08T15:16:45;13.80;35.30
64549;DHT22;49838;51.798;10.954;2024-03-08T15:19:13;13.80;35.30
64549;DHT22;49838;51.798;10.954;2024-03-08T15:21:41;13.80;35.40
64549;DHT22;49838;51.798;10.954;2024-03-08T15:24:11;13.80;35.50
64549;DHT22;49838;51.798;10.954;2024-03-08T15:26:41;13.80;35.50
64549;DHT22;49838;51.798;10.954;2024-03-08T15:29:10;13.80;35.50
64549;DHT22;49838;51.798;10.954;2024-03-08T15:31:38;13.80;35.50
64549;DHT22;49838;51.798;10.954;2024-03-08T15:34:08;13.80;35.60
64549;DHT22;49838;51.798;10.954;2024-03-08T15:36:37;13.90;35.60
64549;DHT22;49838;51.798;10.954;2024-03-08T15:39:08;13.90;36.30